createdAt,value
2022-10-10T00:01:37.093Z,101188.97
2022-10-10T00:04:07.622Z,101191.25
2022-10-10T00:06:36.551Z,101188.13
2022-10-10T00:09:07.046Z,101186.56
2022-10-10T00:11:36.320Z,101186.81
2022-10-10T00:14:04.847Z,101196.03
2022-10-10T00:16:33.515Z,101184.19
2022-10-10T00:19:02.063Z,101192.63
2022-10-10T00:21:32.196Z,101187.66
2022-10-10T00:24:01.517Z,101181.72
2022-10-10T00:26:30.044Z,101182.09
2022-10-10T00:28:58.492Z,101184.38
2022-10-10T00:31:27.012Z,101189.09
2022-10-10T00:33:55.487Z,101190.06
2022-10-10T00:36:24.019Z,101184.03
2022-10-10T00:38:53.835Z,101178.38
2022-10-10T00:41:22.592Z,101185.84
2022-10-10T00:44:05.693Z,101182.59
2022-10-10T00:46:34.215Z,101186.63
2022-10-10T00:49:04.193Z,101178.63
2022-10-10T00:51:33.179Z,101177.28
2022-10-10T00:54:06.339Z,101180.47
2022-10-10T00:56:41.106Z,101173.78
2022-10-10T00:59:12.263Z,101165.34
2022-10-10T01:01:42.388Z,101170.97
2022-10-10T01:04:30.365Z,101168.56
2022-10-10T01:07:00.318Z,101171.94
2022-10-10T01:09:31.281Z,101164.72
2022-10-10T01:12:08.727Z,101158.25
2022-10-10T01:14:47.271Z,101156.88
2022-10-10T01:17:21.296Z,101157.63
2022-10-10T01:20:25.257Z,101149.09
2022-10-10T01:23:21.265Z,101156.94
2022-10-10T01:26:00.468Z,101145.69
2022-10-10T01:28:41.320Z,101147.53
2022-10-10T01:31:14.213Z,101144.88
2022-10-10T01:33:54.163Z,101143.34
2022-10-10T01:36:30.229Z,101138.31
2022-10-10T01:39:08.130Z,101138.22
2022-10-10T01:41:41.576Z,101133.38
2022-10-10T01:44:11.371Z,101130.59
2022-10-10T01:46:39.944Z,101128.34
2022-10-10T01:49:08.466Z,101127.56
2022-10-10T01:51:53.850Z,101130.31
2022-10-10T01:54:34.829Z,101121.16
2022-10-10T01:57:16.920Z,101119.69
2022-10-10T01:59:59.855Z,101123.66
2022-10-10T02:02:40.357Z,101118.78
2022-10-10T02:05:16.106Z,101114.94
2022-10-10T02:07:50.250Z,101111.16
2022-10-10T02:10:23.056Z,101111.34
2022-10-10T02:12:53.290Z,101116.59
2022-10-10T02:15:26.621Z,101107.06
2022-10-10T02:17:58.212Z,101106.13
2022-10-10T02:20:28.961Z,101111.00
2022-10-10T02:22:57.810Z,101099.28
2022-10-10T02:25:31.765Z,101100.00
2022-10-10T02:28:08.486Z,101100.59
2022-10-10T02:30:42.653Z,101096.75
2022-10-10T02:33:14.032Z,101095.34
2022-10-10T02:35:47.201Z,101099.78
2022-10-10T02:38:18.806Z,101091.34
2022-10-10T02:40:49.436Z,101093.22
2022-10-10T02:43:19.005Z,101091.94
2022-10-10T02:45:49.000Z,101086.03
2022-10-10T02:48:17.491Z,101084.25
2022-10-10T02:50:46.494Z,101078.03
2022-10-10T02:53:14.947Z,101079.56
2022-10-10T02:55:43.424Z,101074.31
2022-10-10T02:58:11.912Z,101080.03
2022-10-10T03:00:40.465Z,101074.09
2022-10-10T03:03:10.284Z,101071.03
2022-10-10T03:05:38.719Z,101070.25
2022-10-10T03:08:11.467Z,101070.25
2022-10-10T03:10:40.861Z,101060.03
2022-10-10T03:13:09.435Z,101062.63
2022-10-10T03:15:37.937Z,101061.97
2022-10-10T03:18:06.476Z,101056.22
2022-10-10T03:20:36.316Z,101060.19
2022-10-10T03:23:04.786Z,101058.56
2022-10-10T03:25:35.046Z,101053.16
2022-10-10T03:28:03.555Z,101054.16
2022-10-10T03:30:32.033Z,101057.34
2022-10-10T03:33:00.468Z,101056.25
2022-10-10T03:35:29.181Z,101058.97
2022-10-10T03:37:59.611Z,101066.84
2022-10-10T03:40:28.945Z,101059.47
2022-10-10T03:42:57.762Z,101059.91
2022-10-10T03:45:26.343Z,101055.59
2022-10-10T03:47:54.812Z,101055.50
2022-10-10T03:50:23.318Z,101053.50
2022-10-10T03:52:52.240Z,101051.50
2022-10-10T03:55:22.481Z,101050.47
2022-10-10T03:57:50.912Z,101048.03
2022-10-10T04:00:19.569Z,101046.19
2022-10-10T04:02:48.145Z,101047.44
2022-10-10T04:05:16.836Z,101045.38
2022-10-10T04:07:45.320Z,101046.75
2022-10-10T04:10:13.813Z,101036.09
2022-10-10T04:12:43.689Z,101044.16
2022-10-10T04:15:12.568Z,101036.78
2022-10-10T04:17:40.992Z,101039.69
2022-10-10T04:20:10.128Z,101043.75
2022-10-10T04:22:38.593Z,101048.84
2022-10-10T04:25:07.761Z,101048.34
2022-10-10T04:27:36.241Z,101040.63
2022-10-10T04:30:07.168Z,101039.69
2022-10-10T04:32:35.618Z,101043.88
2022-10-10T04:35:04.962Z,101050.66
2022-10-10T04:37:34.476Z,101045.97
2022-10-10T04:40:03.033Z,101043.28
2022-10-10T04:42:31.530Z,101035.25
2022-10-10T04:45:00.008Z,101031.03
2022-10-10T04:47:29.829Z,101037.41
2022-10-10T04:49:58.290Z,101027.50
2022-10-10T04:52:26.811Z,101030.50
2022-10-10T04:54:55.263Z,101033.53
2022-10-10T04:57:23.987Z,101041.91
2022-10-10T04:59:52.604Z,101044.22
2022-10-10T05:02:21.145Z,101047.91
2022-10-10T05:04:50.959Z,101037.97
2022-10-10T05:07:19.439Z,101041.25
2022-10-10T05:09:47.922Z,101034.75
2022-10-10T05:12:16.413Z,101040.44
2022-10-10T05:14:48.153Z,101035.44
2022-10-10T05:17:16.960Z,101043.34
2022-10-10T05:19:45.609Z,101038.88
2022-10-10T05:22:15.456Z,101036.72
2022-10-10T05:24:43.912Z,101037.38
2022-10-10T05:27:12.423Z,101037.88
2022-10-10T05:29:40.926Z,101036.53
2022-10-10T05:32:10.432Z,101031.63
2022-10-10T05:34:39.543Z,101030.84
2022-10-10T05:37:08.086Z,101039.34
2022-10-10T05:39:37.924Z,101039.25
2022-10-10T05:42:06.529Z,101045.34
2022-10-10T05:44:35.010Z,101033.53
2022-10-10T05:47:04.431Z,101040.16
2022-10-10T05:49:32.905Z,101041.41
2022-10-10T05:52:01.422Z,101035.78
2022-10-10T05:54:29.892Z,101046.94
2022-10-10T05:56:59.772Z,101044.28
2022-10-10T05:59:30.312Z,101042.69
2022-10-10T06:01:59.013Z,101050.53
2022-10-10T06:04:27.536Z,101049.97
2022-10-10T06:06:55.964Z,101041.75
2022-10-10T06:09:24.448Z,101045.31
2022-10-10T06:11:52.958Z,101039.50
2022-10-10T06:14:22.884Z,101044.44
2022-10-10T06:16:51.390Z,101052.44
2022-10-10T06:19:19.853Z,101057.63
2022-10-10T06:21:49.637Z,101050.28
2022-10-10T06:24:18.099Z,101063.16
2022-10-10T06:26:46.555Z,101053.66
2022-10-10T06:29:15.011Z,101062.06
2022-10-10T06:31:44.864Z,101060.09
2022-10-10T06:34:13.332Z,101057.38
2022-10-10T06:36:41.810Z,101059.84
2022-10-10T06:39:10.261Z,101065.25
2022-10-10T06:41:38.733Z,101062.91
2022-10-10T06:44:07.691Z,101069.06
2022-10-10T06:46:37.363Z,101064.22
2022-10-10T06:49:07.277Z,101065.53
2022-10-10T06:51:35.792Z,101068.47
2022-10-10T06:54:04.297Z,101067.47
2022-10-10T06:56:33.110Z,101070.97
2022-10-10T06:59:01.634Z,101068.53
2022-10-10T07:01:30.263Z,101070.56
2022-10-10T07:03:58.768Z,101073.59
2022-10-10T07:06:32.517Z,101070.75
2022-10-10T07:09:03.168Z,101071.41
2022-10-10T07:11:32.425Z,101073.34
2022-10-10T07:14:00.878Z,101068.13
2022-10-10T07:16:29.376Z,101077.91
2022-10-10T07:18:57.849Z,101072.28
2022-10-10T07:21:27.798Z,101071.28
2022-10-10T07:23:56.274Z,101067.22
2022-10-10T07:26:28.195Z,101084.78
2022-10-10T07:28:56.617Z,101077.41
2022-10-10T07:31:25.223Z,101084.22
2022-10-10T07:33:53.734Z,101078.34
2022-10-10T07:36:22.276Z,101076.19
2022-10-10T07:38:54.492Z,101077.97
2022-10-10T07:41:23.531Z,101076.22
2022-10-10T07:43:56.760Z,101080.81
2022-10-10T07:46:25.760Z,101075.56
2022-10-10T07:48:54.200Z,101089.66
2022-10-10T07:51:22.689Z,101094.13
2022-10-10T07:53:53.862Z,101092.50
2022-10-10T07:56:22.643Z,101094.75
2022-10-10T07:58:51.096Z,101098.31
2022-10-10T08:01:20.210Z,101096.25
2022-10-10T08:03:48.881Z,101097.94
2022-10-10T08:06:18.653Z,101095.13
2022-10-10T08:08:51.995Z,101091.69
2022-10-10T08:11:23.280Z,101107.75
2022-10-10T08:13:52.373Z,101099.66
2022-10-10T08:16:21.091Z,101098.03
2022-10-10T08:18:49.585Z,101102.44
2022-10-10T08:21:18.460Z,101092.81
2022-10-10T08:23:47.673Z,101107.09
2022-10-10T08:26:17.981Z,101102.94
2022-10-10T08:28:48.793Z,101105.88
2022-10-10T08:31:19.822Z,101110.13
2022-10-10T08:33:49.271Z,101108.53
2022-10-10T08:36:19.646Z,101110.34
2022-10-10T08:38:48.304Z,101106.66
2022-10-10T08:41:28.388Z,101111.59
2022-10-10T08:44:01.672Z,101108.78
2022-10-10T08:46:40.529Z,101105.66
2022-10-10T08:49:20.426Z,101109.41
2022-10-10T08:51:54.214Z,101113.03
2022-10-10T08:54:25.082Z,101109.56
2022-10-10T08:56:56.311Z,101114.63
2022-10-10T08:59:31.299Z,101115.22
2022-10-10T09:02:17.733Z,101121.34
2022-10-10T09:04:47.552Z,101122.44
2022-10-10T09:07:28.116Z,101117.69
2022-10-10T09:10:02.285Z,101124.75
2022-10-10T09:12:39.226Z,101127.19
2022-10-10T09:15:16.413Z,101124.44
2022-10-10T09:17:51.099Z,101122.50
2022-10-10T09:20:36.416Z,101122.13
2022-10-10T09:23:09.873Z,101125.28
2022-10-10T09:25:41.887Z,101127.63
2022-10-10T09:28:17.293Z,101127.59
2022-10-10T09:30:51.738Z,101125.56
2022-10-10T09:33:28.311Z,101122.75
2022-10-10T09:36:02.661Z,101137.81
2022-10-10T09:38:39.791Z,101135.31
2022-10-10T09:41:15.957Z,101133.72
2022-10-10T09:43:44.618Z,101133.69
2022-10-10T09:46:14.742Z,101138.09
2022-10-10T09:48:44.290Z,101133.75
2022-10-10T09:51:16.735Z,101126.22
2022-10-10T09:53:47.397Z,101130.22
2022-10-10T09:56:19.235Z,101126.97
2022-10-10T09:58:49.583Z,101126.78
2022-10-10T10:01:22.706Z,101137.41
2022-10-10T10:04:29.470Z,101135.09
2022-10-10T10:07:08.929Z,101132.84
2022-10-10T10:09:37.445Z,101126.47
2022-10-10T10:12:07.293Z,101136.19
2022-10-10T10:14:39.067Z,101138.69
2022-10-10T10:17:11.884Z,101136.13
2022-10-10T10:19:42.563Z,101141.00
2022-10-10T10:22:32.564Z,101141.53
2022-10-10T10:25:21.582Z,101144.38
2022-10-10T10:27:50.042Z,101147.38
2022-10-10T10:30:26.899Z,101139.47
2022-10-10T10:33:03.812Z,101149.63
2022-10-10T10:35:37.376Z,101141.41
2022-10-10T10:38:18.954Z,101148.47
2022-10-10T10:40:57.816Z,101140.59
2022-10-10T10:43:51.468Z,101144.06
2022-10-10T10:46:30.191Z,101150.50
2022-10-10T10:49:08.084Z,101141.28
2022-10-10T10:52:00.495Z,101138.41
2022-10-10T10:54:51.272Z,101135.19
2022-10-10T11:00:31.144Z,101140.63
2022-10-10T11:03:35.056Z,101146.81
2022-10-10T11:06:12.642Z,101143.06
2022-10-10T11:08:58.784Z,101144.22
2022-10-10T11:11:48.719Z,101146.94
2022-10-10T11:14:34.816Z,101138.88
2022-10-10T11:17:13.900Z,101142.13
2022-10-10T11:19:48.122Z,101132.94
2022-10-10T11:22:22.347Z,101143.63
2022-10-10T11:24:55.118Z,101141.19
2022-10-10T11:27:29.732Z,101144.94
2022-10-10T11:30:15.477Z,101144.44
2022-10-10T11:32:51.841Z,101150.50
2022-10-10T11:35:34.437Z,101149.72
2022-10-10T11:38:12.853Z,101133.28
2022-10-10T11:40:51.606Z,101134.91
2022-10-10T11:43:32.929Z,101137.84
2022-10-10T11:46:09.745Z,101134.94
2022-10-10T11:48:49.177Z,101138.88
2022-10-10T11:51:29.644Z,101133.16
2022-10-10T11:54:05.705Z,101150.81
2022-10-10T11:56:40.764Z,101134.34
2022-10-10T11:59:16.710Z,101142.13
2022-10-10T12:01:49.972Z,101134.34
2022-10-10T12:04:18.886Z,101143.53
2022-10-10T12:06:53.988Z,101133.53
2022-10-10T12:09:29.795Z,101135.84
2022-10-10T12:12:01.433Z,101144.50
2022-10-10T12:14:31.791Z,101137.03
2022-10-10T12:17:00.784Z,101138.53
2022-10-10T12:19:30.520Z,101136.28
2022-10-10T12:22:04.985Z,101132.41
2022-10-10T12:24:40.982Z,101137.50
2022-10-10T12:27:31.037Z,101139.47
2022-10-10T12:30:19.673Z,101133.63
2022-10-10T12:32:50.223Z,101125.78
2022-10-10T12:35:37.909Z,101129.72
2022-10-10T12:38:19.137Z,101135.00
2022-10-10T12:41:17.009Z,101131.66
2022-10-10T12:44:23.129Z,101130.28
2022-10-10T12:47:52.787Z,101126.19
2022-10-10T12:50:26.754Z,101122.88
2022-10-10T12:52:59.728Z,101127.34
2022-10-10T12:55:32.521Z,101120.06
2022-10-10T12:58:04.862Z,101123.75
2022-10-10T13:00:42.630Z,101132.44
2022-10-10T13:03:18.809Z,101125.44
2022-10-10T13:05:50.317Z,101133.75
2022-10-10T13:08:25.326Z,101126.69
2022-10-10T13:11:08.618Z,101134.47
2022-10-10T13:13:37.037Z,101133.63
2022-10-10T13:16:14.541Z,101138.19
2022-10-10T13:18:49.747Z,101137.69
2022-10-10T13:21:23.638Z,101143.59
2022-10-10T13:26:48.109Z,101149.47
2022-10-10T13:29:25.711Z,101144.75
2022-10-10T13:32:00.713Z,101151.47
2022-10-10T13:34:32.655Z,101163.13
2022-10-10T13:37:04.151Z,101155.53
2022-10-10T13:39:37.440Z,101160.53
2022-10-10T13:42:07.860Z,101158.81
2022-10-10T13:44:51.123Z,101153.47
2022-10-10T13:47:52.581Z,101159.34
2022-10-10T13:50:29.183Z,101155.78
2022-10-10T13:53:47.184Z,101146.34
2022-10-10T13:56:22.574Z,101144.19
2022-10-10T13:58:53.452Z,101160.69
2022-10-10T14:01:40.606Z,101163.47
2022-10-10T14:04:21.203Z,101166.81
2022-10-10T14:07:01.974Z,101174.31
2022-10-10T14:09:37.111Z,101178.72
2022-10-10T14:12:08.710Z,101187.34
2022-10-10T14:14:45.358Z,101193.44
2022-10-10T14:17:13.810Z,101202.06
2022-10-10T14:19:45.053Z,101192.88
2022-10-10T14:22:13.471Z,101197.63
2022-10-10T14:24:41.689Z,101205.75
2022-10-10T14:27:17.698Z,101206.31
2022-10-10T14:29:46.280Z,101217.69
2022-10-10T14:32:15.980Z,101231.34
2022-10-10T14:34:45.838Z,101219.31
2022-10-10T14:37:20.418Z,101237.16
2022-10-10T14:39:49.033Z,101244.66
2022-10-10T14:42:20.769Z,101237.34
2022-10-10T14:44:48.978Z,101235.06
2022-10-10T14:47:19.568Z,101241.38
2022-10-10T14:49:49.829Z,101250.91
2022-10-10T14:52:17.987Z,101253.16
2022-10-10T14:54:46.205Z,101259.84
2022-10-10T14:57:15.497Z,101245.09
2022-10-10T14:59:47.657Z,101247.03
2022-10-10T15:02:22.336Z,101260.88
2022-10-10T15:04:52.441Z,101261.94
2022-10-10T15:07:21.316Z,101261.41
2022-10-10T15:12:41.775Z,101264.47
2022-10-10T15:15:12.124Z,101274.09
2022-10-10T15:17:41.368Z,101275.25
2022-10-10T15:20:13.789Z,101291.88
2022-10-10T15:22:42.570Z,101287.34
2022-10-10T15:25:11.144Z,101289.38
2022-10-10T15:27:39.588Z,101294.88
2022-10-10T15:30:09.603Z,101293.03
2022-10-10T15:32:40.689Z,101311.22
2022-10-10T15:35:14.170Z,101310.66
2022-10-10T15:37:42.452Z,101315.03
2022-10-10T15:40:12.479Z,101322.97
2022-10-10T15:42:40.689Z,101325.53
2022-10-10T15:45:10.590Z,101324.84
2022-10-10T15:47:45.508Z,101336.72
2022-10-10T15:50:16.123Z,101347.47
2022-10-10T15:52:44.607Z,101345.94
2022-10-10T15:55:12.808Z,101349.94
2022-10-10T15:57:41.082Z,101348.38
2022-10-10T16:00:10.540Z,101345.22
2022-10-10T16:02:39.327Z,101356.75
2022-10-10T16:05:08.564Z,101362.75
2022-10-10T16:07:46.789Z,101370.09
2022-10-10T16:10:16.457Z,101364.47
2022-10-10T16:12:44.680Z,101370.38
2022-10-10T16:15:13.415Z,101380.63
2022-10-10T16:17:41.582Z,101388.00
2022-10-10T16:20:11.186Z,101395.41
2022-10-10T16:22:40.734Z,101419.50
2022-10-10T16:25:21.951Z,101412.47
2022-10-10T16:27:51.933Z,101416.53
2022-10-10T16:30:20.994Z,101412.06
2022-10-10T16:32:49.640Z,101417.28
2022-10-10T16:35:18.019Z,101431.75
2022-10-10T16:37:47.544Z,101433.00
2022-10-10T16:40:15.720Z,101440.06
2022-10-10T16:42:43.914Z,101441.41
2022-10-10T16:45:12.879Z,101443.72
2022-10-10T16:47:41.026Z,101446.81
2022-10-10T16:50:10.512Z,101452.81
2022-10-10T16:52:38.693Z,101452.06
2022-10-10T16:55:11.313Z,101462.44
2022-10-10T17:00:16.425Z,101473.31
2022-10-10T17:02:44.572Z,101485.91
2022-10-10T17:05:12.748Z,101480.09
2022-10-10T17:07:40.883Z,101488.09
2022-10-10T17:10:11.463Z,101495.00
2022-10-10T17:12:39.652Z,101501.56
2022-10-10T17:15:09.281Z,101516.06
2022-10-10T17:17:38.186Z,101524.78
2022-10-10T17:20:08.186Z,101533.22
2022-10-10T17:22:37.074Z,101548.63
2022-10-10T17:25:06.338Z,101556.00
2022-10-10T17:27:36.116Z,101561.72
2022-10-10T17:30:05.401Z,101561.75
2022-10-10T17:32:33.681Z,101566.56
2022-10-10T17:35:01.852Z,101575.34
2022-10-10T17:37:30.002Z,101578.72
2022-10-10T17:39:58.139Z,101585.63
2022-10-10T17:42:26.710Z,101590.94
2022-10-10T17:44:59.291Z,101594.38
2022-10-10T17:47:28.345Z,101603.97
2022-10-10T17:49:56.808Z,101614.50
2022-10-10T17:52:25.912Z,101623.75
2022-10-10T17:54:54.378Z,101630.66
2022-10-10T17:57:22.548Z,101643.00
2022-10-10T17:59:50.699Z,101647.69
2022-10-10T18:02:20.736Z,101648.84
2022-10-10T18:04:48.886Z,101653.56
2022-10-10T18:07:18.701Z,101659.16
2022-10-10T18:09:47.131Z,101660.66
2022-10-10T18:12:15.616Z,101666.28
2022-10-10T18:14:44.139Z,101667.16
2022-10-10T18:17:13.948Z,101675.94
2022-10-10T18:19:43.935Z,101680.16
2022-10-10T18:22:12.457Z,101682.63
2022-10-10T18:24:40.935Z,101677.97
2022-10-10T18:27:09.432Z,101686.78
2022-10-10T18:29:39.585Z,101692.91
2022-10-10T18:32:08.380Z,101700.25
2022-10-10T18:34:36.989Z,101700.78
2022-10-10T18:37:07.163Z,101706.78
2022-10-10T18:39:37.520Z,101707.63
2022-10-10T18:42:06.366Z,101717.81
2022-10-10T18:44:34.827Z,101724.75
2022-10-10T18:47:03.423Z,101720.03
2022-10-10T18:49:31.924Z,101723.72
2022-10-10T18:52:00.412Z,101729.84
2022-10-10T18:54:30.944Z,101723.13
2022-10-10T18:56:59.449Z,101731.16
2022-10-10T18:59:27.945Z,101735.38
2022-10-10T19:01:56.742Z,101733.88
2022-10-10T19:04:25.489Z,101735.78
2022-10-10T19:06:57.705Z,101744.88
2022-10-10T19:09:26.838Z,101744.63
2022-10-10T19:11:56.808Z,101745.06
2022-10-10T19:14:25.303Z,101749.84
2022-10-10T19:16:53.791Z,101750.63
2022-10-10T19:19:22.338Z,101757.44
2022-10-10T19:21:51.376Z,101761.19
2022-10-10T19:24:21.353Z,101770.59
2022-10-10T19:26:56.347Z,101777.91
2022-10-10T19:29:27.479Z,101778.25
2022-10-10T19:31:56.327Z,101784.00
2022-10-10T19:34:25.045Z,101788.13
2022-10-10T19:36:53.605Z,101797.38
2022-10-10T19:39:22.120Z,101796.72
2022-10-10T19:41:50.923Z,101795.34
2022-10-10T19:44:19.357Z,101801.44
2022-10-10T19:46:49.203Z,101797.75
2022-10-10T19:49:17.701Z,101818.50
2022-10-10T19:51:46.212Z,101814.63
2022-10-10T19:54:14.675Z,101812.88
2022-10-10T19:56:42.848Z,101818.63
2022-10-10T19:59:11.000Z,101827.09
2022-10-10T20:01:39.254Z,101822.50
2022-10-10T20:04:08.882Z,101824.78
2022-10-10T20:06:37.081Z,101826.59
2022-10-10T20:09:10.388Z,101833.53
2022-10-10T20:11:39.518Z,101836.56
2022-10-10T20:14:08.024Z,101845.16
2022-10-10T20:16:36.498Z,101840.03
2022-10-10T20:19:04.801Z,101845.41
2022-10-10T20:21:36.005Z,101846.59
2022-10-10T20:24:09.674Z,101856.19
2022-10-10T20:26:38.508Z,101867.19
2022-10-10T20:29:07.936Z,101865.78
2022-10-10T20:31:38.290Z,101870.47
2022-10-10T20:34:07.460Z,101873.53
2022-10-10T20:36:39.149Z,101882.00
2022-10-10T20:39:10.512Z,101886.38
2022-10-10T20:41:40.219Z,101889.41
2022-10-10T20:44:11.716Z,101897.03
2022-10-10T20:46:43.295Z,101897.75
2022-10-10T20:49:15.782Z,101901.75
2022-10-10T20:51:48.692Z,101903.44
2022-10-10T20:54:19.061Z,101898.59
2022-10-10T20:56:49.154Z,101900.09
2022-10-10T20:59:18.001Z,101909.50
2022-10-10T21:01:46.448Z,101911.94
2022-10-10T21:04:15.066Z,101913.03
2022-10-10T21:06:44.630Z,101913.50
2022-10-10T21:09:15.873Z,101913.75
2022-10-10T21:11:46.437Z,101923.53
2022-10-10T21:14:17.026Z,101920.75
2022-10-10T21:16:45.305Z,101918.69
2022-10-10T21:19:13.817Z,101926.31
2022-10-10T21:21:42.051Z,101931.63
2022-10-10T21:24:13.436Z,101938.56
2022-10-10T21:26:43.299Z,101942.41
2022-10-10T21:29:11.445Z,101936.94
2022-10-10T21:31:41.622Z,101944.44
2022-10-10T21:34:15.571Z,101936.94
2022-10-10T21:36:43.819Z,101946.66
2022-10-10T21:39:14.096Z,101947.69
2022-10-10T21:41:42.684Z,101952.16
2022-10-10T21:44:11.540Z,101962.34
2022-10-10T21:46:39.732Z,101948.53
2022-10-10T21:49:10.072Z,101950.94
2022-10-10T21:51:40.132Z,101960.38
2022-10-10T21:54:09.092Z,101962.91
2022-10-10T21:56:39.121Z,101965.69
2022-10-10T21:59:08.055Z,101970.22
2022-10-10T22:01:37.766Z,101967.91
2022-10-10T22:04:07.642Z,101971.31
2022-10-10T22:06:36.310Z,101969.00
2022-10-10T22:09:04.993Z,101970.94
2022-10-10T22:11:35.321Z,101969.81
2022-10-10T22:14:05.608Z,101971.50
2022-10-10T22:16:35.104Z,101973.91
2022-10-10T22:19:04.681Z,101973.06
2022-10-10T22:21:34.947Z,101972.69
2022-10-10T22:24:07.506Z,101976.06
2022-10-10T22:26:36.584Z,101979.09
2022-10-10T22:29:06.548Z,101980.66
2022-10-10T22:31:37.550Z,101981.72
2022-10-10T22:34:06.463Z,101982.19
2022-10-10T22:36:34.738Z,101986.53
2022-10-10T22:39:02.972Z,101990.41
2022-10-10T22:41:31.173Z,101984.47
2022-10-10T22:43:59.786Z,101995.34
2022-10-10T22:46:29.307Z,101990.47
2022-10-10T22:48:57.641Z,101994.19
2022-10-10T22:51:26.152Z,101992.50
2022-10-10T22:53:54.339Z,102001.94
2022-10-10T22:56:23.138Z,102000.22
2022-10-10T22:58:52.679Z,102003.84
2022-10-10T23:01:24.275Z,101999.81
2022-10-10T23:04:00.411Z,102000.28
2022-10-10T23:06:28.981Z,102003.69
2022-10-10T23:08:58.136Z,102006.31
2022-10-10T23:11:26.327Z,102009.09
2022-10-10T23:13:54.499Z,102010.00
2022-10-10T23:16:22.763Z,102016.28
2022-10-10T23:18:51.142Z,102015.81
2022-10-10T23:21:21.166Z,102020.97
2022-10-10T23:23:49.313Z,102015.19
2022-10-10T23:26:17.613Z,102017.56
2022-10-10T23:28:45.872Z,102025.25
2022-10-10T23:31:15.047Z,102025.75
2022-10-10T23:33:44.363Z,102027.47
2022-10-10T23:36:14.881Z,102025.75
2022-10-10T23:38:44.737Z,102031.78
2022-10-10T23:41:13.891Z,102023.25
2022-10-10T23:43:42.077Z,102023.91
2022-10-10T23:46:10.298Z,102023.34
2022-10-10T23:48:38.521Z,102032.31
2022-10-10T23:51:08.020Z,102031.28
2022-10-10T23:53:36.726Z,102030.66
2022-10-10T23:56:07.340Z,102034.06
2022-10-10T23:58:35.988Z,102031.91
